Time;durP1;ratioP1;P1;durP2;ratioP2;P2;SDS_P1;SDS_P2;PMS_P1;PMS_P2;Temp;Humidity;BMP_temperature;BMP_pressure;BME280_temperature;BME280_humidity;BME280_pressure;Samples;Min_cycle;Max_cycle;Signal;HPM_P1;HPM_P2
2022/02/19 00:00:59;;;;;;;233.07;124.13;;;;;;;4.79;49.89;95083.94;4979579;28;20062;-79
2022/02/19 00:03:25;;;;;;;181.98;97.65;;;;;;;4.77;49.34;95072.25;4983818;28;20047;-80
2022/02/19 00:05:50;;;;;;;161.88;74.70;;;;;;;4.70;49.52;95076.53;4957129;28;20094;-80
2022/02/19 00:08:16;;;;;;;152.32;71.30;;;;;;;4.60;49.98;95082.06;4971278;28;20035;-80
2022/02/19 00:10:42;;;;;;;151.73;62.92;;;;;;;4.64;49.65;95098.72;4970554;28;20038;-80
2022/02/19 00:13:07;;;;;;;119.47;52.90;;;;;;;4.55;49.32;95099.81;4968796;28;20092;-80
2022/02/19 00:15:33;;;;;;;85.65;36.08;;;;;;;4.47;49.31;95110.28;4952013;28;20474;-79
2022/02/19 00:17:58;;;;;;;94.05;42.30;;;;;;;4.48;50.07;95111.88;4970927;28;20031;-80
2022/02/19 00:20:24;;;;;;;81.28;38.08;;;;;;;4.44;49.40;95102.94;4954673;28;20506;-79
2022/02/19 00:22:54;;;;;;;100.68;43.20;;;;;;;4.34;49.78;95113.53;4969342;28;20042;-79
2022/02/19 00:25:20;;;;;;;85.22;36.88;;;;;;;4.41;49.12;95116.97;4973170;28;20127;-80
2022/02/19 00:27:46;;;;;;;75.93;29.23;;;;;;;4.44;48.86;95118.38;4969911;28;20035;-80
2022/02/19 00:30:11;;;;;;;73.95;25.80;;;;;;;4.47;49.55;95123.16;4967634;28;20097;-80
2022/02/19 00:32:37;;;;;;;59.58;23.60;;;;;;;4.49;49.02;95123.75;4934837;28;20027;-80
2022/02/19 00:35:03;;;;;;;46.08;20.52;;;;;;;4.43;49.18;95119.38;4968261;28;20050;-80
2022/02/19 00:37:30;;;;;;;56.55;22.60;;;;;;;4.46;49.97;95121.56;4952286;28;20411;-80
2022/02/19 00:39:55;;;;;;;80.45;31.52;;;;;;;4.46;50.02;95121.56;4966766;28;20035;-80
2022/02/19 00:42:21;;;;;;;93.05;36.70;;;;;;;4.48;49.52;95128.13;4966771;28;20038;-80
2022/02/19 00:44:46;;;;;;;133.65;55.20;;;;;;;4.38;50.70;95132.78;4965529;28;20101;-80
2022/02/19 00:47:12;;;;;;;144.93;57.25;;;;;;;4.36;50.79;95121.06;4965154;28;20041;-79
2022/02/19 00:49:37;;;;;;;104.90;46.97;;;;;;;4.33;50.84;95106.00;4965880;28;20035;-80
2022/02/19 00:52:03;;;;;;;104.22;43.63;;;;;;;4.35;50.83;95104.03;4965736;28;20514;-80
2022/02/19 00:54:29;;;;;;;104.07;42.55;;;;;;;4.42;51.15;95112.63;4965710;28;20055;-80
2022/02/19 00:56:54;;;;;;;100.65;42.25;;;;;;;4.45;50.84;95115.63;4950099;28;20114;-80
2022/02/19 00:59:19;;;;;;;115.43;46.17;;;;;;;4.34;51.16;95103.25;4934047;28;20051;-79
2022/02/19 01:01:45;;;;;;;126.05;53.42;;;;;;;4.38;50.94;95095.94;4951024;28;20031;-80
2022/02/19 01:04:10;;;;;;;159.98;67.75;;;;;;;4.35;51.50;95096.31;4967060;28;20031;-79
2022/02/19 01:06:36;;;;;;;145.30;65.88;;;;;;;4.36;51.24;95085.03;4966479;28;20038;-79
2022/02/19 01:09:02;;;;;;;148.32;64.45;;;;;;;4.37;50.91;95081.47;4966270;28;20430;-79
2022/02/19 01:11:27;;;;;;;177.85;77.15;;;;;;;4.36;51.31;95085.03;4966559;28;20097;-79
2022/02/19 01:13:53;;;;;;;90.68;33.35;;;;;;;4.35;51.24;95089.38;4967628;28;20024;-79
2022/02/19 01:16:18;;;;;;;151.02;67.80;;;;;;;4.39;51.21;95097.53;4967219;28;20040;-79
2022/02/19 01:18:44;;;;;;;156.48;66.63;;;;;;;4.31;51.95;95098.47;4951287;28;20125;-79
2022/02/19 01:21:09;;;;;;;127.15;55.72;;;;;;;4.35;51.45;95099.69;4966258;28;20027;-79
2022/02/19 01:23:34;;;;;;;134.25;54.72;;;;;;;4.33;51.53;95093.91;4964554;28;20031;-79
2022/02/19 01:26:00;;;;;;;139.13;60.40;;;;;;;4.36;51.54;95096.13;4950166;28;20427;-79
2022/02/19 01:28:25;;;;;;;138.68;61.55;;;;;;;4.29;51.42;95089.34;4966241;28;20067;-80
2022/02/19 01:30:51;;;;;;;151.52;66.90;;;;;;;4.28;51.68;95092.91;4967810;28;20507;-79
2022/02/19 01:33:16;;;;;;;169.90;77.38;;;;;;;4.26;51.22;95087.13;4950840;28;20038;-80
2022/02/19 01:35:42;;;;;;;192.57;86.82;;;;;;;4.27;51.07;95092.09;4966665;28;20038;-79
2022/02/19 01:38:08;;;;;;;187.05;80.40;;;;;;;4.22;51.81;95084.91;4950934;28;20042;-80
2022/02/19 01:40:33;;;;;;;154.15;67.40;;;;;;;4.21;51.54;95083.31;4965987;28;20821;-79
2022/02/19 01:42:58;;;;;;;145.15;70.13;;;;;;;4.20;52.05;95081.72;4949101;28;20035;-79
2022/02/19 01:45:24;;;;;;;164.07;73.00;;;;;;;4.19;52.35;95085.28;4969411;28;20031;-79
2022/02/19 01:47:49;;;;;;;155.85;70.07;;;;;;;4.16;52.36;95072.78;4968066;28;20031;-79
2022/02/19 01:50:16;;;;;;;169.60;78.47;;;;;;;4.12;53.09;95079.31;4965371;28;20038;-80
2022/02/19 01:52:42;;;;;;;152.50;73.00;;;;;;;4.12;53.10;95074.16;4965422;28;20019;-80
2022/02/19 01:55:09;;;;;;;126.05;54.90;;;;;;;4.13;52.64;95059.50;4967719;28;20034;-79
2022/02/19 01:57:35;;;;;;;117.45;51.25;;;;;;;4.15;52.42;95058.34;4948970;28;20045;-79
2022/02/19 02:00:00;;;;;;;122.38;51.38;;;;;;;4.16;52.83;95056.56;4966552;28;20042;-79
2022/02/19 02:02:26;;;;;;;144.40;66.32;;;;;;;4.08;52.74;95070.38;4935980;28;20030;-79
2022/02/19 02:04:51;;;;;;;136.10;59.25;;;;;;;4.13;53.17;95075.75;5055586;23;20526;-79
2022/02/19 02:07:17;;;;;;;168.98;74.22;;;;;;;4.15;52.51;95073.00;4936825;29;20035;-79
2022/02/19 02:09:43;;;;;;;112.00;49.08;;;;;;;4.15;52.27;95073.00;4936060;29;20051;-80
2022/02/19 02:12:08;;;;;;;124.88;50.60;;;;;;;4.14;51.63;95085.06;4935307;29;20028;-79
2022/02/19 02:14:41;;;;;;;119.40;49.97;;;;;;;4.08;52.48;95083.22;4903487;29;20039;-79
2022/02/19 02:17:07;;;;;;;56.83;26.33;;;;;;;4.02;51.82;95080.59;4896759;29;20043;-79
2022/02/19 02:19:36;;;;;;;57.25;27.05;;;;;;;4.03;51.63;95080.41;4936531;29;20103;-79
2022/02/19 02:22:03;;;;;;;68.25;25.25;;;;;;;4.02;51.71;95075.44;4934701;29;20134;-78
2022/02/19 02:24:28;;;;;;;58.65;25.52;;;;;;;4.02;51.91;95076.22;4937839;29;20028;-80
2022/02/19 02:26:54;;;;;;;77.60;27.33;;;;;;;4.03;51.92;95085.53;4924582;29;20047;-81
2022/02/19 02:29:19;;;;;;;51.60;23.95;;;;;;;3.94;52.21;95081.53;4908734;29;20043;-80
2022/02/19 02:31:46;;;;;;;64.72;25.77;;;;;;;3.97;51.85;95086.28;4914816;29;20039;-79
2022/02/19 02:34:12;;;;;;;73.55;29.25;;;;;;;3.99;51.95;95078.38;4943705;29;20038;-81
2022/02/19 02:36:38;;;;;;;66.53;28.50;;;;;;;3.99;52.07;95079.19;4921671;29;20023;-80
2022/02/19 02:39:03;;;;;;;65.00;27.55;;;;;;;3.95;51.66;95077.97;4921131;29;20099;-80
2022/02/19 02:41:29;;;;;;;55.15;23.15;;;;;;;4.02;51.86;95076.22;4921934;29;20059;-81
2022/02/19 02:43:54;;;;;;;58.42;25.13;;;;;;;4.00;51.73;95077.41;4937078;29;20028;-80
2022/02/19 02:46:20;;;;;;;57.13;23.13;;;;;;;3.98;52.16;95080.16;4905232;29;20040;-80
2022/02/19 02:48:45;;;;;;;61.72;26.02;;;;;;;3.84;52.69;95086.16;4920370;29;20039;-81
2022/02/19 02:51:11;;;;;;;62.15;26.42;;;;;;;3.85;52.52;95088.53;4920648;29;20031;-80
2022/02/19 02:53:36;;;;;;;60.97;26.13;;;;;;;3.85;52.62;95082.59;4920543;29;20067;-81
2022/02/19 02:56:02;;;;;;;69.90;28.48;;;;;;;3.80;52.42;95087.50;4936333;29;20043;-81
2022/02/19 02:58:28;;;;;;;74.57;27.92;;;;;;;3.77;52.94;95080.16;4919772;29;20031;-80
2022/02/19 03:00:53;;;;;;;69.32;26.33;;;;;;;3.69;52.99;95086.22;4920232;29;20102;-80
2022/02/19 03:03:18;;;;;;;54.50;24.77;;;;;;;3.72;52.84;95077.31;4935774;29;20476;-80
2022/02/19 03:05:44;;;;;;;70.00;27.42;;;;;;;3.64;53.16;95080.81;4920370;29;20047;-80
2022/02/19 03:08:10;;;;;;;64.15;30.23;;;;;;;3.65;53.29;95084.19;4919628;29;20067;-80
2022/02/19 03:10:35;;;;;;;77.80;30.98;;;;;;;3.59;53.51;95078.00;4935382;29;20035;-80
2022/02/19 03:13:01;;;;;;;103.88;43.75;;;;;;;3.56;53.47;95068.84;4920235;29;20058;-79
2022/02/19 03:15:26;;;;;;;114.68;52.60;;;;;;;3.57;53.18;95073.03;4919272;29;20132;-80
2022/02/19 03:17:52;;;;;;;139.40;62.00;;;;;;;3.53;53.43;95074.38;4936850;29;20174;-81
2022/02/19 03:20:19;;;;;;;136.77;61.50;;;;;;;3.46;54.05;95073.50;4921064;29;20059;-79
2022/02/19 03:22:45;;;;;;;127.30;57.53;;;;;;;3.44;54.31;95075.47;4935812;29;20042;-79
2022/02/19 03:25:16;;;;;;;135.07;58.95;;;;;;;3.37;53.74;95066.88;4920669;29;20031;-83
2022/02/19 03:27:42;;;;;;;183.25;94.05;;;;;;;3.51;53.62;95076.34;4905241;29;20033;-80
2022/02/19 03:30:08;;;;;;;117.75;54.33;;;;;;;3.46;53.62;95078.66;4935361;29;20091;-79
2022/02/19 03:32:34;;;;;;;130.70;54.58;;;;;;;3.48;53.42;95075.91;4917785;29;20480;-79
2022/02/19 03:34:59;;;;;;;174.63;84.60;;;;;;;3.37;53.88;95079.72;4935049;29;20040;-79
2022/02/19 03:37:25;;;;;;;161.02;80.78;;;;;;;3.36;54.04;95078.13;4934788;29;20047;-79
2022/02/19 03:39:50;;;;;;;172.27;88.30;;;;;;;3.33;54.18;95083.63;4918277;29;20063;-79
2022/02/19 03:42:16;;;;;;;233.77;120.95;;;;;;;3.30;54.24;95104.56;4902797;29;20127;-79
2022/02/19 03:44:42;;;;;;;251.50;136.63;;;;;;;3.28;53.87;95102.19;4934169;29;20027;-79
2022/02/19 03:47:07;;;;;;;215.05;122.15;;;;;;;3.22;54.43;95107.22;4934171;29;20039;-78
2022/02/19 03:49:32;;;;;;;163.00;87.05;;;;;;;3.27;54.09;95107.50;4932706;29;20061;-78
2022/02/19 03:51:58;;;;;;;168.85;86.53;;;;;;;3.22;54.38;95102.09;4917113;29;20039;-78
2022/02/19 03:54:23;;;;;;;176.50;95.45;;;;;;;3.19;54.60;95108.38;4934835;29;20040;-78
2022/02/19 03:56:49;;;;;;;179.77;94.70;;;;;;;3.25;53.57;95101.72;4933787;29;20090;-78
2022/02/19 03:59:14;;;;;;;165.95;90.25;;;;;;;3.24;54.35;95110.41;4933392;29;20060;-78
2022/02/19 04:01:43;;;;;;;158.60;74.07;;;;;;;3.21;55.01;95103.06;4918023;29;20508;-78
2022/02/19 04:04:08;;;;;;;127.60;63.88;;;;;;;3.17;54.27;95105.19;4933269;29;20047;-78
2022/02/19 04:06:34;;;;;;;115.88;57.20;;;;;;;3.19;54.14;95092.16;4918072;29;20032;-78
2022/02/19 04:08:59;;;;;;;108.75;53.42;;;;;;;3.17;54.11;95087.22;4933375;29;20051;-78
2022/02/19 04:11:25;;;;;;;107.68;53.15;;;;;;;3.19;54.70;95081.88;4917796;29;20086;-78
2022/02/19 04:13:51;;;;;;;133.30;61.60;;;;;;;3.15;55.17;95090.94;4917546;29;20067;-78
2022/02/19 04:16:16;;;;;;;117.95;56.53;;;;;;;3.15;54.86;95090.94;4933177;29;20048;-79
2022/02/19 04:18:41;;;;;;;99.70;50.83;;;;;;;3.14;54.71;95086.78;4933697;29;20039;-78
2022/02/19 04:21:07;;;;;;;93.60;46.97;;;;;;;3.00;55.09;95084.03;4933222;29;20028;-79
2022/02/19 04:23:33;;;;;;;101.05;43.03;;;;;;;3.01;55.35;95089.97;4937446;29;20043;-78
2022/02/19 04:25:59;;;;;;;89.00;44.22;;;;;;;2.97;55.11;95093.88;4937850;29;20024;-79
2022/02/19 04:28:26;;;;;;;95.40;47.53;;;;;;;2.93;55.49;95088.31;4936501;29;20035;-78
2022/02/19 04:30:52;;;;;;;87.10;43.67;;;;;;;2.99;55.07;95081.66;4937670;29;20431;-78
2022/02/19 04:33:17;;;;;;;100.57;47.60;;;;;;;3.02;55.06;95086.44;4921728;29;20508;-78
2022/02/19 04:35:45;;;;;;;128.52;51.10;;;;;;;2.99;55.19;95087.59;4942422;29;20035;-78
2022/02/19 04:38:11;;;;;;;107.20;50.13;;;;;;;3.02;55.04;95096.69;4921080;29;20495;-78
2022/02/19 04:40:37;;;;;;;94.05;44.63;;;;;;;3.01;55.09;95100.25;4936357;29;20028;-77
2022/02/19 04:43:03;;;;;;;118.80;60.95;;;;;;;2.96;55.75;95089.72;4923383;29;20046;-78
2022/02/19 04:45:28;;;;;;;113.28;55.58;;;;;;;3.01;55.81;95090.75;4919514;29;20032;-77
2022/02/19 04:47:53;;;;;;;105.63;48.70;;;;;;;3.00;55.91;95084.03;4939769;29;20425;-78
2022/02/19 04:50:19;;;;;;;78.35;36.42;;;;;;;3.06;55.14;95092.00;4938584;29;20035;-79
2022/02/19 04:52:44;;;;;;;72.07;32.58;;;;;;;2.99;55.28;95087.59;4947126;29;20039;-78
2022/02/19 04:55:10;;;;;;;67.15;30.38;;;;;;;2.90;55.43;95086.06;4946767;29;20028;-78
2022/02/19 04:57:37;;;;;;;71.22;28.67;;;;;;;2.90;55.38;95096.34;4916559;29;20035;-80
2022/02/19 05:00:06;;;;;;;68.13;27.52;;;;;;;2.86;55.20;95096.88;4946571;29;20039;-79
2022/02/19 05:02:31;;;;;;;51.60;20.98;;;;;;;2.87;55.72;95096.69;4938175;29;20643;-79
2022/02/19 05:04:57;;;;;;;52.20;24.13;;;;;;;2.76;55.94;95092.00;4927245;29;20042;-79
2022/02/19 05:07:22;;;;;;;49.88;21.67;;;;;;;2.87;55.33;95094.13;4948030;29;20051;-78
2022/02/19 05:09:48;;;;;;;63.25;24.10;;;;;;;2.75;55.37;95090.41;4940100;29;20036;-79
2022/02/19 05:12:13;;;;;;;56.78;24.38;;;;;;;2.72;55.75;95108.72;4937031;29;20967;-79
2022/02/19 05:14:38;;;;;;;67.57;25.67;;;;;;;2.73;55.36;95102.63;4936697;29;20036;-79
2022/02/19 05:17:04;;;;;;;77.85;27.95;;;;;;;2.73;55.56;95105.19;4922473;29;20040;-79
2022/02/19 05:19:30;;;;;;;63.22;24.98;;;;;;;2.72;55.77;95113.88;4939447;29;20492;-79
2022/02/19 05:21:55;;;;;;;62.28;24.33;;;;;;;2.79;55.52;95112.22;4907756;29;20043;-78
2022/02/19 05:24:20;;;;;;;59.80;28.35;;;;;;;2.76;55.94;95116.88;4936951;29;20036;-78
2022/02/19 05:26:47;;;;;;;65.07;26.25;;;;;;;2.77;56.33;95108.22;4937721;29;20027;-78
2022/02/19 05:29:12;;;;;;;49.65;23.65;;;;;;;2.90;55.01;95104.03;4935847;29;20111;-79
2022/02/19 05:31:38;;;;;;;58.10;25.08;;;;;;;2.87;55.32;95101.03;4921594;29;20039;-79
2022/02/19 05:34:04;;;;;;;65.75;25.88;;;;;;;2.87;55.73;95106.97;4938312;29;20038;-79
2022/02/19 05:36:30;;;;;;;63.15;25.48;;;;;;;2.91;55.88;95109.97;4934973;29;20039;-78
2022/02/19 05:38:56;;;;;;;63.10;26.08;;;;;;;2.94;56.06;95092.47;4919525;29;20079;-79
2022/02/19 05:41:21;;;;;;;62.65;26.70;;;;;;;2.99;55.47;95097.84;4905154;29;20035;-79
2022/02/19 05:43:47;;;;;;;97.10;32.25;;;;;;;3.06;55.87;95092.00;4920182;29;20432;-78
2022/02/19 05:46:12;;;;;;;60.33;26.40;;;;;;;3.20;55.38;95091.19;4935900;29;20477;-78
2022/02/19 05:48:38;;;;;;;59.75;26.23;;;;;;;3.43;54.62;95089.31;4935265;29;20024;-78
2022/02/19 05:51:03;;;;;;;66.70;30.80;;;;;;;3.71;54.45;95091.16;4903788;29;20031;-78
2022/02/19 05:53:28;;;;;;;68.78;28.85;;;;;;;4.01;53.54;95087.50;4918972;29;20054;-78
2022/02/19 05:55:54;;;;;;;71.68;25.95;;;;;;;4.26;51.78;95090.50;4936025;29;20040;-80
2022/02/19 05:58:21;;;;;;;65.60;28.95;;;;;;;4.53;51.69;95086.34;4937639;29;20048;-81
2022/02/19 06:00:46;;;;;;;87.10;40.88;;;;;;;4.90;51.00;95084.41;4936544;29;20031;-83
2022/02/19 06:03:12;;;;;;;188.82;98.85;;;;;;;5.22;50.65;95081.22;4938136;29;20030;-79
2022/02/19 06:05:38;;;;;;;200.98;104.85;;;;;;;5.59;49.81;95071.41;4937772;29;20040;-79
2022/02/19 06:08:03;;;;;;;190.68;99.55;;;;;;;6.25;48.24;95066.41;4935624;29;20075;-78
2022/02/19 06:10:29;;;;;;;177.18;95.25;;;;;;;6.85;46.35;95072.31;4964265;23;20046;-78
2022/02/19 06:12:54;;;;;;;68.47;33.83;;;;;;;7.04;45.56;95074.06;4968421;28;20419;-79
2022/02/19 06:15:20;;;;;;;150.30;72.97;;;;;;;7.20;45.29;95091.72;4967979;28;20038;-79
2022/02/19 06:17:45;;;;;;;164.65;87.53;;;;;;;7.29;44.90;95094.06;4987517;28;20019;-77
2022/02/19 06:20:11;;;;;;;83.22;37.28;;;;;;;7.31;44.01;95108.38;4989371;28;20026;-77
2022/02/19 06:22:36;;;;;;;72.35;28.83;;;;;;;7.36;43.73;95108.59;4966265;28;20030;-77
2022/02/19 06:25:02;;;;;;;67.88;26.25;;;;;;;7.15;43.91;95122.53;4969305;28;20538;-78
2022/02/19 06:27:27;;;;;;;62.40;26.63;;;;;;;7.11;44.24;95123.97;4949399;28;20359;-79
2022/02/19 06:29:53;;;;;;;58.58;24.55;;;;;;;7.19;44.20;95133.31;4966483;28;20046;-79
2022/02/19 06:32:18;;;;;;;57.08;25.83;;;;;;;7.28;44.05;95126.91;4951385;28;20051;-79
2022/02/19 06:34:44;;;;;;;67.20;26.13;;;;;;;7.51;43.49;95136.81;4951093;28;20041;-79
2022/02/19 06:37:09;;;;;;;69.40;31.42;;;;;;;7.89;43.57;95138.63;4967559;28;20038;-80
2022/02/19 06:39:35;;;;;;;53.50;25.63;;;;;;;8.76;41.41;95139.69;4968611;28;20042;-79
2022/02/19 06:42:00;;;;;;;58.85;25.65;;;;;;;9.20;40.44;95151.66;4968414;28;20038;-80
2022/02/19 06:44:26;;;;;;;57.20;24.88;;;;;;;9.38;38.86;95156.09;4967452;28;20030;-79
2022/02/19 06:46:51;;;;;;;55.83;24.35;;;;;;;9.47;39.01;95152.22;4967435;28;20166;-80
2022/02/19 06:49:16;;;;;;;54.53;23.67;;;;;;;9.54;38.62;95145.13;4968470;28;20081;-80
2022/02/19 06:51:42;;;;;;;52.25;24.52;;;;;;;9.54;38.59;95150.31;4966756;28;20031;-84
2022/02/19 06:54:07;;;;;;;53.88;25.25;;;;;;;9.56;38.62;95149.09;4964505;28;20048;-79
2022/02/19 06:56:33;;;;;;;64.82;26.73;;;;;;;9.60;39.19;95146.88;4964140;28;20031;-80
2022/02/19 06:59:01;;;;;;;65.72;25.88;;;;;;;9.61;38.65;95151.06;4966089;28;20429;-79
2022/02/19 07:01:30;;;;;;;61.92;24.52;;;;;;;9.63;38.13;95136.06;4964126;28;20039;-84
2022/02/19 07:03:58;;;;;;;64.70;26.85;;;;;;;9.60;38.85;95139.88;4965305;28;20483;-82
2022/02/19 07:06:24;;;;;;;62.65;26.08;;;;;;;9.82;37.96;95136.81;4964334;28;20106;-78
2022/02/19 07:08:49;;;;;;;70.68;27.98;;;;;;;9.93;37.67;95141.28;4965896;28;20030;-79
2022/02/19 07:11:15;;;;;;;70.47;27.67;;;;;;;10.13;37.96;95128.81;4965532;28;20105;-79
2022/02/19 07:13:40;;;;;;;77.57;28.25;;;;;;;10.29;37.03;95134.44;4947676;28;20368;-79
2022/02/19 07:16:06;;;;;;;69.75;35.25;;;;;;;10.39;37.48;95132.88;4979751;28;20042;-79
2022/02/19 07:18:32;;;;;;;72.43;31.67;;;;;;;10.52;36.83;95139.69;4965746;28;20023;-79
2022/02/19 07:21:00;;;;;;;72.05;30.95;;;;;;;10.62;36.82;95137.34;4983468;28;20045;-79
2022/02/19 07:23:25;;;;;;;81.78;31.27;;;;;;;10.79;37.05;95134.88;4959359;28;20113;-79
2022/02/19 07:25:51;;;;;;;70.13;34.30;;;;;;;10.87;36.41;95133.75;4965752;28;20031;-79
2022/02/19 07:28:17;;;;;;;71.40;32.65;;;;;;;10.96;36.08;95132.41;4951299;28;20066;-80
2022/02/19 07:30:43;;;;;;;65.10;27.90;;;;;;;11.07;35.76;95129.03;4965251;28;20481;-79
2022/02/19 07:33:09;;;;;;;59.28;28.60;;;;;;;11.12;35.94;95126.53;4948389;28;20069;-79
2022/02/19 07:35:35;;;;;;;65.55;27.92;;;;;;;11.28;35.25;95120.63;4974165;23;20047;-79
2022/02/19 07:38:00;;;;;;;74.13;30.50;;;;;;;11.40;35.70;95118.81;4967472;28;20027;-79
2022/02/19 07:40:26;;;;;;;58.15;29.33;;;;;;;11.46;35.16;95100.69;4949601;28;20028;-79
2022/02/19 07:42:52;;;;;;;64.03;30.17;;;;;;;11.49;35.32;95115.84;4947775;29;20023;-79
2022/02/19 07:45:18;;;;;;;61.20;29.60;;;;;;;11.54;35.02;95110.72;4971075;28;20036;-79
2022/02/19 07:47:43;;;;;;;76.63;30.08;;;;;;;11.49;35.80;95116.63;4946028;29;20039;-79
2022/02/19 07:58:26;;;;;;;62.15;27.80;;;;;;;11.68;34.74;95125.88;4949966;28;20447;-79
2022/02/19 08:00:57;;;;;;;77.38;27.27;;;;;;;11.71;34.83;95120.22;4950480;29;20031;-79
2022/02/19 08:03:25;;;;;;;70.05;28.33;;;;;;;11.83;34.31;95114.97;4964715;28;20617;-79
2022/02/19 08:05:51;;;;;;;58.28;26.27;;;;;;;12.00;34.74;95134.06;4949138;29;20059;-79
2022/02/19 08:08:17;;;;;;;64.25;27.67;;;;;;;12.15;34.68;95120.53;4949849;29;20048;-79
2022/02/19 08:10:46;;;;;;;57.25;23.38;;;;;;;12.25;33.88;95125.13;4954125;28;20026;-79
2022/02/19 08:13:12;;;;;;;61.95;24.02;;;;;;;12.35;33.42;95125.31;4949258;29;20047;-79
2022/02/19 08:15:37;;;;;;;56.60;23.17;;;;;;;12.51;33.04;95129.75;4950966;29;20501;-79
2022/02/19 08:18:04;;;;;;;56.63;23.67;;;;;;;12.59;32.67;95132.00;4933974;29;20027;-79
2022/02/19 08:20:31;;;;;;;52.72;23.75;;;;;;;12.72;32.84;95137.94;4951792;28;20040;-85
2022/02/19 08:22:57;;;;;;;59.08;24.45;;;;;;;12.80;32.57;95132.31;4949002;29;20034;-79
2022/02/19 08:25:22;;;;;;;62.78;24.83;;;;;;;12.83;32.13;95124.00;4950116;29;20400;-82
2022/02/19 08:27:48;;;;;;;67.82;25.33;;;;;;;12.83;32.58;95129.22;4952382;29;20027;-81
2022/02/19 08:30:13;;;;;;;47.80;23.25;;;;;;;12.89;31.98;95128.28;4951181;28;20040;-81
2022/02/19 08:32:39;;;;;;;52.05;24.80;;;;;;;12.94;31.95;95128.34;4960418;29;20015;-81
2022/02/19 08:35:05;;;;;;;57.30;21.05;;;;;;;12.93;31.95;95122.34;4952051;28;20098;-80
2022/02/19 08:37:31;;;;;;;48.05;21.45;;;;;;;13.01;31.70;95118.53;4957574;29;20039;-80
2022/02/19 08:39:57;;;;;;;48.50;19.67;;;;;;;13.09;31.37;95115.53;4950848;28;20055;-80
2022/02/19 08:42:23;;;;;;;61.67;18.63;;;;;;;13.19;30.76;95115.72;4949297;28;20020;-81
2022/02/19 08:44:49;;;;;;;38.35;15.38;;;;;;;13.20;30.09;95117.28;4952059;28;20042;-79
2022/02/19 08:47:14;;;;;;;48.65;14.63;;;;;;;13.26;29.76;95112.91;4973526;28;20110;-84
2022/02/19 08:49:39;;;;;;;36.92;12.75;;;;;;;13.27;29.52;95113.69;4959083;28;20031;-81
2022/02/19 08:52:05;;;;;;;29.85;11.70;;;;;;;13.36;28.78;95115.69;4949643;29;20055;-79
2022/02/19 08:54:30;;;;;;;34.40;15.35;;;;;;;13.32;29.75;95116.38;4947728;29;20792;-78
2022/02/19 08:56:56;;;;;;;28.15;14.57;;;;;;;13.15;29.61;95126.81;4952435;29;20039;-80
2022/02/19 08:59:21;;;;;;;38.97;14.07;;;;;;;13.19;30.04;95118.31;4955706;28;20054;-78
2022/02/19 09:01:47;;;;;;;32.63;11.82;;;;;;;13.34;28.90;95122.97;4962163;28;20044;-79
2022/02/19 09:04:13;;;;;;;28.63;12.90;;;;;;;13.50;29.32;95126.53;4960427;28;20036;-78
2022/02/19 09:06:38;;;;;;;23.13;8.93;;;;;;;13.57;28.69;95121.94;4956193;28;20427;-86
2022/02/19 09:09:05;;;;;;;21.63;8.02;;;;;;;13.49;27.93;95125.75;4948398;28;20403;-83
2022/02/19 09:11:35;;;;;;;26.90;10.25;;;;;;;13.42;28.38;95125.16;4951212;28;20040;-81
2022/02/19 09:14:01;;;;;;;23.15;8.90;;;;;;;13.31;28.82;95127.84;4952544;28;20063;-82
2022/02/19 09:16:29;;;;;;;27.38;9.50;;;;;;;13.38;28.78;95128.50;4952104;29;20075;-84
2022/02/19 09:18:55;;;;;;;25.30;9.57;;;;;;;13.37;28.17;95119.06;4947913;28;20036;-79
2022/02/19 09:21:20;;;;;;;23.63;8.95;;;;;;;13.34;28.39;95124.75;4951321;29;20031;-83
2022/02/19 09:23:46;;;;;;;29.92;9.20;;;;;;;13.31;28.57;95122.63;4948773;28;20505;-84
2022/02/19 09:26:11;;;;;;;27.98;8.93;;;;;;;13.26;28.29;95109.50;4955561;29;20087;-84
2022/02/19 09:28:39;;;;;;;20.42;8.32;;;;;;;13.22;28.14;95119.66;4937902;28;20046;-83
2022/02/19 09:31:04;;;;;;;29.52;8.45;;;;;;;13.25;27.67;95128.81;4965109;29;20035;-84
2022/02/19 09:33:30;;;;;;;22.20;7.97;;;;;;;13.09;27.96;95125.97;4962727;28;20036;-83
2022/02/19 09:35:55;;;;;;;30.25;8.82;;;;;;;12.92;28.25;95125.19;4963245;28;20031;-84
2022/02/19 09:38:22;;;;;;;31.20;9.75;;;;;;;12.84;28.14;95128.19;4945894;29;20035;-82
2022/02/19 09:40:50;;;;;;;23.17;8.32;;;;;;;12.64;28.77;95133.88;4947666;28;20055;-81
2022/02/19 09:43:18;;;;;;;23.63;8.52;;;;;;;12.36;28.82;95132.09;4947483;29;20031;-79
2022/02/19 09:45:48;;;;;;;22.33;8.63;;;;;;;12.30;29.35;95130.44;4945229;29;20040;-81
2022/02/19 09:48:13;;;;;;;37.08;9.90;;;;;;;12.19;29.82;95141.69;4948504;29;20957;-78
2022/02/19 09:50:39;;;;;;;24.33;8.95;;;;;;;12.17;29.52;95134.13;4950343;29;20019;-81
2022/02/19 09:53:04;;;;;;;25.45;9.27;;;;;;;12.12;29.77;95146.28;4950031;29;20031;-80
2022/02/19 09:55:30;;;;;;;22.50;9.68;;;;;;;12.11;29.69;95135.06;4938652;29;20032;-81
2022/02/19 09:57:56;;;;;;;24.52;8.27;;;;;;;12.20;29.93;95127.63;4952843;29;20036;-84
2022/02/19 10:00:42;;;;;;;22.40;8.25;;;;;;;12.32;29.32;95136.19;4961367;28;20027;-83
2022/02/19 10:03:18;;;;;;;32.47;10.43;;;;;;;12.27;29.45;95133.53;4971139;28;20043;-85
2022/02/19 10:05:44;;;;;;;23.15;8.13;;;;;;;12.11;29.41;95135.06;4975350;28;20059;-84
2022/02/19 10:08:10;;;;;;;28.83;7.55;;;;;;;12.16;29.75;95131.75;4946818;29;20035;-85
2022/02/19 10:10:53;;;;;;;24.60;9.05;;;;;;;12.10;29.92;95128.25;4946293;29;20043;-87
2022/02/19 10:13:35;;;;;;;19.63;7.10;;;;;;;11.96;30.02;95127.75;4943706;29;20082;-86
2022/02/19 10:16:02;;;;;;;16.13;6.97;;;;;;;12.05;30.12;95120.34;4950786;29;20047;-86
2022/02/19 10:18:32;;;;;;;22.38;6.40;;;;;;;12.07;30.19;95123.53;4940584;28;20043;-84
2022/02/19 10:21:10;;;;;;;16.13;6.28;;;;;;;12.17;29.63;95121.09;4972539;28;20099;-84
2022/02/19 10:23:39;;;;;;;22.60;6.47;;;;;;;12.25;29.31;95114.72;4958118;28;20031;-84
2022/02/19 10:26:05;;;;;;;18.45;6.88;;;;;;;12.21;29.54;95116.22;4964230;28;20031;-84
2022/02/19 10:28:30;;;;;;;17.52;6.50;;;;;;;12.06;29.82;95113.34;4957048;29;20086;-86
2022/02/19 10:30:56;;;;;;;16.25;5.50;;;;;;;12.04;29.64;95108.34;4959492;29;20071;-86
2022/02/19 10:33:26;;;;;;;11.63;5.53;;;;;;;12.16;29.72;95100.47;4952648;28;20042;-86
2022/02/19 10:35:52;;;;;;;17.75;5.40;;;;;;;12.36;29.46;95103.41;4933869;29;20046;-83
2022/02/19 10:38:18;;;;;;;15.57;4.60;;;;;;;12.42;28.24;95110.31;4945988;28;20064;-80
2022/02/19 10:40:52;;;;;;;18.27;5.88;;;;;;;12.46;28.67;95106.19;4948457;28;20035;-82
2022/02/19 10:43:29;;;;;;;18.25;5.95;;;;;;;12.62;28.49;95104.63;4974149;28;20031;-81
2022/02/19 10:45:55;;;;;;;21.55;6.18;;;;;;;12.82;28.24;95088.50;4956007;29;20118;-82
2022/02/19 10:48:24;;;;;;;15.38;5.38;;;;;;;13.05;28.46;95087.53;4947524;29;20110;-82
2022/02/19 10:50:50;;;;;;;21.08;6.90;;;;;;;13.20;28.51;95075.50;4973487;28;20039;-83
2022/02/19 10:53:26;;;;;;;19.73;7.00;;;;;;;13.49;27.95;95072.72;4962308;28;20094;-84
2022/02/19 10:55:52;;;;;;;17.95;6.55;;;;;;;13.67;27.56;95054.13;4937211;29;20115;-85
2022/02/19 10:58:18;;;;;;;27.23;6.70;;;;;;;13.81;27.09;95046.69;4951262;29;20034;-86
2022/02/19 11:00:44;;;;;;;19.25;6.07;;;;;;;13.88;27.02;95056.97;4968369;28;20032;-84
2022/02/19 11:03:10;;;;;;;18.35;6.97;;;;;;;14.12;26.51;95047.78;4956196;29;20112;-83
2022/02/19 11:05:36;;;;;;;22.95;6.80;;;;;;;14.26;26.77;95046.31;4953969;28;20113;-83
2022/02/19 11:08:01;;;;;;;16.27;7.07;;;;;;;14.43;26.19;95040.97;4954444;28;20032;-85
2022/02/19 11:10:28;;;;;;;13.07;6.45;;;;;;;14.50;25.89;95051.28;4950117;28;20098;-83
2022/02/19 11:12:54;;;;;;;26.63;9.77;;;;;;;14.50;26.10;95038.19;4943425;29;20047;-83
2022/02/19 11:15:20;;;;;;;25.08;5.95;;;;;;;14.54;25.77;95032.22;4927979;29;20095;-84
2022/02/19 11:17:47;;;;;;;16.17;7.47;;;;;;;14.42;26.12;95036.78;4943100;28;20118;-83
2022/02/19 11:20:14;;;;;;;17.63;5.25;;;;;;;14.38;26.43;95028.66;4943227;29;20630;-84
2022/02/19 11:22:40;;;;;;;19.25;5.93;;;;;;;14.40;26.69;95023.94;4951002;29;20031;-83
2022/02/19 11:25:07;;;;;;;13.20;5.20;;;;;;;14.23;27.52;95025.13;4942709;29;20031;-84